Time;durP1;ratioP1;P1;durP2;ratioP2;P2;SDS_P1;SDS_P2;PMS_P1;PMS_P2;Temp;Humidity;BMP_temperature;BMP_pressure;BME280_temperature;BME280_humidity;BME280_pressure;Samples;Min_cycle;Max_cycle;Signal;HPM_P1;HPM_P2
2020/12/30 00:00:10;;;;;;;10.75;6.03;;;4.00;99.90;;;;;;5011672;28;20064;-59
2020/12/30 00:02:36;;;;;;;10.85;5.63;;;4.00;99.90;;;;;;5012815;28;20037;-57
2020/12/30 00:05:11;;;;;;;11.73;5.80;;;3.90;99.90;;;;;;5012602;28;20033;-57
2020/12/30 00:07:38;;;;;;;10.00;6.05;;;3.90;99.90;;;;;;5012478;28;20042;-57
2020/12/30 00:10:06;;;;;;;13.30;5.35;;;3.80;99.90;;;;;;5012265;28;20034;-59
2020/12/30 00:12:33;;;;;;;12.35;4.88;;;3.70;99.90;;;;;;5012307;28;20427;-58
2020/12/30 00:14:59;;;;;;;13.05;5.65;;;3.70;99.90;;;;;;5012470;28;20026;-58
2020/12/30 00:17:26;;;;;;;10.43;4.70;;;3.60;99.90;;;;;;5012237;28;20044;-57
2020/12/30 00:19:52;;;;;;;10.57;5.88;;;3.60;99.90;;;;;;5011926;28;20089;-59
2020/12/30 00:22:19;;;;;;;9.02;4.97;;;3.60;99.90;;;;;;5012560;28;20034;-58
2020/12/30 00:24:45;;;;;;;8.93;5.03;;;3.60;99.90;;;;;;5012287;28;20034;-56
2020/12/30 00:27:11;;;;;;;11.50;5.53;;;3.50;99.90;;;;;;5012488;28;20037;-57
2020/12/30 00:29:37;;;;;;;12.23;6.00;;;3.60;99.90;;;;;;5012284;28;20034;-58
2020/12/30 00:32:03;;;;;;;13.85;5.72;;;3.60;99.90;;;;;;5012286;28;20041;-57
2020/12/30 00:34:29;;;;;;;13.45;5.28;;;3.60;99.90;;;;;;5011160;28;20034;-57
2020/12/30 00:36:54;;;;;;;8.90;5.20;;;3.60;99.90;;;;;;5012378;28;20037;-58
2020/12/30 00:39:20;;;;;;;9.02;5.43;;;3.60;99.90;;;;;;5012256;28;20100;-58
2020/12/30 00:41:53;;;;;;;9.07;5.45;;;3.50;99.90;;;;;;5011940;28;20399;-59
2020/12/30 00:44:19;;;;;;;8.88;5.53;;;3.70;99.90;;;;;;5012313;28;20042;-59
2020/12/30 00:46:56;;;;;;;9.07;4.93;;;3.60;99.90;;;;;;5012217;28;20059;-58
2020/12/30 00:49:24;;;;;;;12.43;5.45;;;3.60;99.90;;;;;;5011996;28;20037;-56
2020/12/30 00:51:56;;;;;;;9.90;5.03;;;3.60;99.90;;;;;;5012227;28;20026;-58
2020/12/30 00:54:22;;;;;;;10.77;6.00;;;3.70;99.90;;;;;;5012267;28;20076;-58
2020/12/30 00:56:50;;;;;;;10.95;6.22;;;3.70;99.90;;;;;;5012958;28;20037;-56
2020/12/30 00:59:17;;;;;;;12.68;5.15;;;3.60;99.90;;;;;;5015904;28;20032;-58
2020/12/30 01:01:43;;;;;;;11.00;4.90;;;3.60;99.90;;;;;;5015882;28;20034;-56
2020/12/30 01:04:09;;;;;;;11.05;5.18;;;3.70;99.90;;;;;;5015704;28;20478;-56
2020/12/30 01:06:36;;;;;;;13.82;5.00;;;3.70;99.90;;;;;;5016034;28;20057;-57
2020/12/30 01:09:06;;;;;;;10.45;4.80;;;3.70;99.90;;;;;;5015947;28;20030;-57
2020/12/30 01:11:32;;;;;;;11.85;5.13;;;3.70;99.90;;;;;;5016092;28;20029;-58
2020/12/30 01:13:59;;;;;;;9.48;4.72;;;3.70;99.90;;;;;;5014435;28;20036;-57
2020/12/30 01:16:26;;;;;;;10.18;4.72;;;3.70;99.90;;;;;;5015387;28;20025;-59
2020/12/30 01:18:53;;;;;;;13.48;5.18;;;3.70;99.90;;;;;;5015163;28;20060;-58
2020/12/30 01:21:19;;;;;;;15.80;5.47;;;3.70;99.90;;;;;;5015761;28;20022;-59
2020/12/30 01:23:45;;;;;;;10.63;5.05;;;3.80;99.90;;;;;;5015714;28;20053;-58
2020/12/30 01:26:11;;;;;;;9.73;5.00;;;3.80;99.90;;;;;;5015689;28;20075;-58
2020/12/30 01:28:37;;;;;;;10.57;5.00;;;3.80;99.90;;;;;;5015669;28;20030;-57
2020/12/30 01:31:04;;;;;;;7.88;4.43;;;3.90;99.90;;;;;;5015396;28;20033;-57
2020/12/30 01:33:29;;;;;;;8.02;4.72;;;3.80;99.90;;;;;;5015529;28;20046;-56
2020/12/30 01:35:55;;;;;;;7.80;4.75;;;3.90;99.90;;;;;;5015166;28;20089;-58
2020/12/30 01:38:21;;;;;;;9.05;4.68;;;3.90;99.90;;;;;;5015438;28;20034;-56
2020/12/30 01:40:52;;;;;;;8.63;4.43;;;3.90;99.90;;;;;;5015323;28;20030;-58
2020/12/30 01:43:18;;;;;;;8.63;4.97;;;4.00;99.90;;;;;;5015071;28;20116;-57
2020/12/30 01:45:44;;;;;;;9.23;4.22;;;4.10;99.90;;;;;;5015260;28;20171;-58
2020/12/30 01:48:20;;;;;;;7.43;4.35;;;4.10;99.90;;;;;;5013934;28;20029;-58
2020/12/30 01:50:46;;;;;;;8.32;4.15;;;4.20;99.90;;;;;;5013837;28;20062;-58
2020/12/30 01:53:12;;;;;;;7.95;4.10;;;4.20;99.90;;;;;;5014837;28;20487;-58
2020/12/30 01:55:40;;;;;;;6.35;3.83;;;4.10;99.90;;;;;;5015206;28;20036;-59
2020/12/30 01:58:10;;;;;;;8.93;3.58;;;4.20;99.90;;;;;;5014674;28;20030;-58
2020/12/30 02:00:40;;;;;;;8.90;4.27;;;4.30;99.90;;;;;;5015072;28;20022;-58
2020/12/30 02:03:08;;;;;;;9.68;4.65;;;4.30;99.90;;;;;;5013482;28;20038;-58
2020/12/30 02:05:36;;;;;;;6.50;3.60;;;4.30;99.90;;;;;;5014943;28;20080;-58
2020/12/30 02:08:04;;;;;;;8.82;4.45;;;4.30;99.90;;;;;;5014413;28;20030;-57
2020/12/30 02:10:31;;;;;;;6.65;3.75;;;4.30;99.90;;;;;;5013394;28;20029;-57
2020/12/30 02:12:58;;;;;;;8.93;3.85;;;4.30;99.90;;;;;;5014880;28;20022;-58
2020/12/30 02:15:29;;;;;;;9.88;4.00;;;4.40;99.90;;;;;;5014452;28;20037;-58
2020/12/30 02:17:57;;;;;;;7.93;3.60;;;4.40;99.90;;;;;;5012882;28;20033;-60
2020/12/30 02:20:23;;;;;;;6.95;3.75;;;4.30;99.90;;;;;;4996039;28;20125;-58
2020/12/30 02:23:08;;;;;;;8.85;3.95;;;4.30;99.90;;;;;;5014629;28;20030;-58
2020/12/30 02:25:34;;;;;;;7.38;3.47;;;4.30;99.90;;;;;;5014677;28;20034;-58
2020/12/30 02:28:00;;;;;;;8.45;3.83;;;4.40;99.90;;;;;;5014404;28;20064;-57
2020/12/30 02:30:26;;;;;;;7.70;3.55;;;4.30;99.90;;;;;;5014178;28;20034;-58
2020/12/30 02:32:52;;;;;;;6.40;3.67;;;4.30;99.90;;;;;;5014103;28;20030;-58
2020/12/30 02:35:23;;;;;;;8.52;3.75;;;4.40;99.90;;;;;;5014371;28;20037;-58
2020/12/30 02:37:50;;;;;;;7.70;3.63;;;4.40;99.90;;;;;;5014353;28;20078;-58
2020/12/30 02:40:18;;;;;;;7.38;3.30;;;4.40;99.90;;;;;;5013984;28;20085;-58
2020/12/30 02:42:44;;;;;;;10.05;3.88;;;4.40;99.90;;;;;;5013906;28;20029;-58
2020/12/30 02:45:11;;;;;;;8.10;3.13;;;4.40;99.90;;;;;;5013705;28;20083;-57
2020/12/30 02:47:36;;;;;;;5.30;3.42;;;4.40;99.90;;;;;;5013661;28;20053;-58
2020/12/30 02:50:05;;;;;;;4.95;3.17;;;4.40;99.90;;;;;;5014057;28;20053;-57
2020/12/30 02:52:31;;;;;;;10.15;4.10;;;4.50;99.90;;;;;;5014025;28;20109;-58
2020/12/30 02:54:57;;;;;;;9.60;3.70;;;4.50;99.90;;;;;;5013962;28;20084;-58
2020/12/30 02:57:23;;;;;;;8.93;3.40;;;4.50;99.90;;;;;;5013663;28;20038;-59
2020/12/30 02:59:55;;;;;;;8.88;3.85;;;4.50;99.90;;;;;;5013873;28;20034;-58
2020/12/30 03:02:25;;;;;;;7.25;3.72;;;4.50;99.90;;;;;;5012517;28;20034;-58
2020/12/30 03:04:53;;;;;;;7.95;3.63;;;4.60;99.90;;;;;;5013870;28;20037;-59
2020/12/30 03:07:20;;;;;;;9.23;4.05;;;4.50;99.90;;;;;;5013506;28;20034;-58
2020/12/30 03:09:47;;;;;;;11.25;3.95;;;4.60;99.90;;;;;;5013339;28;20034;-58
2020/12/30 03:12:14;;;;;;;7.57;3.72;;;4.60;99.90;;;;;;5013302;28;20041;-58
2020/12/30 03:14:41;;;;;;;10.13;4.00;;;4.70;99.90;;;;;;5013565;28;20040;-58
2020/12/30 03:17:07;;;;;;;7.25;3.83;;;4.70;99.90;;;;;;5012200;28;20030;-56
2020/12/30 03:19:33;;;;;;;7.38;3.97;;;4.60;99.90;;;;;;5013106;28;20061;-58
2020/12/30 03:21:59;;;;;;;9.10;3.45;;;4.70;99.90;;;;;;5013428;28;20026;-58
2020/12/30 03:24:25;;;;;;;6.25;3.47;;;4.70;99.90;;;;;;5013472;28;20033;-57
2020/12/30 03:26:51;;;;;;;8.80;3.75;;;4.70;99.90;;;;;;5013457;28;20030;-57
2020/12/30 03:29:17;;;;;;;8.15;3.83;;;4.60;99.90;;;;;;5013118;28;20099;-58
2020/12/30 03:31:43;;;;;;;7.03;3.42;;;4.60;99.90;;;;;;5013422;28;20022;-58
2020/12/30 03:34:09;;;;;;;7.18;3.42;;;4.60;99.90;;;;;;5012895;28;20034;-59
2020/12/30 03:36:35;;;;;;;6.32;2.90;;;4.60;99.90;;;;;;5013302;28;20088;-59
2020/12/30 03:39:03;;;;;;;8.77;3.35;;;4.70;99.90;;;;;;5012796;28;20048;-58
2020/12/30 03:41:29;;;;;;;5.35;3.10;;;4.70;99.90;;;;;;5013181;28;20034;-58
2020/12/30 03:43:55;;;;;;;6.10;3.00;;;4.70;99.90;;;;;;5013212;28;20034;-58
2020/12/30 03:46:21;;;;;;;5.28;2.75;;;4.70;99.90;;;;;;5013123;28;20030;-57
2020/12/30 03:48:46;;;;;;;6.68;3.13;;;4.60;99.90;;;;;;5012743;28;20036;-58
2020/12/30 03:51:13;;;;;;;6.15;3.08;;;4.60;99.90;;;;;;5012692;28;20034;-55
2020/12/30 03:53:38;;;;;;;6.85;2.85;;;4.60;99.90;;;;;;5012683;28;20096;-57
2020/12/30 03:56:04;;;;;;;8.80;3.28;;;4.60;99.90;;;;;;5012896;28;20108;-58
2020/12/30 03:58:30;;;;;;;5.25;2.80;;;4.70;99.90;;;;;;5012533;28;20172;-58
2020/12/30 04:00:56;;;;;;;6.15;2.97;;;4.70;99.90;;;;;;5012778;28;20041;-58
2020/12/30 04:03:22;;;;;;;6.95;3.33;;;4.70;99.90;;;;;;5012913;28;20065;-58
2020/12/30 04:05:51;;;;;;;11.77;4.28;;;4.70;99.90;;;;;;5012440;28;20048;-56
2020/12/30 04:08:18;;;;;;;6.93;3.40;;;4.70;99.90;;;;;;5012661;28;20042;-58
2020/12/30 04:10:44;;;;;;;8.77;3.28;;;4.70;99.90;;;;;;5012853;28;20037;-58
2020/12/30 04:13:10;;;;;;;6.85;3.72;;;4.70;99.90;;;;;;5012514;28;20121;-57
2020/12/30 04:15:36;;;;;;;6.85;3.83;;;4.70;99.90;;;;;;5012504;28;20104;-57
2020/12/30 04:18:02;;;;;;;8.38;3.13;;;4.60;99.90;;;;;;5027432;28;20084;-58
2020/12/30 04:20:28;;;;;;;8.93;3.53;;;4.70;99.90;;;;;;5012724;28;20099;-54
2020/12/30 04:22:54;;;;;;;8.15;3.47;;;4.60;99.90;;;;;;5012342;28;20037;-58
2020/12/30 04:25:20;;;;;;;7.35;3.40;;;4.60;99.90;;;;;;5012582;28;20029;-57
2020/12/30 04:27:46;;;;;;;6.80;3.08;;;4.60;99.90;;;;;;5012787;28;20063;-57
2020/12/30 04:30:12;;;;;;;9.27;3.17;;;4.70;99.90;;;;;;5012437;28;20386;-57
2020/12/30 04:32:38;;;;;;;5.65;2.92;;;4.60;99.90;;;;;;5011974;28;20033;-57
2020/12/30 04:35:04;;;;;;;9.85;3.22;;;4.70;99.90;;;;;;5012501;28;20117;-57
2020/12/30 04:37:30;;;;;;;7.07;3.58;;;4.70;99.90;;;;;;5012296;28;20041;-57
2020/12/30 04:39:56;;;;;;;6.43;2.90;;;4.60;99.90;;;;;;5012447;28;20034;-58
2020/12/30 04:42:35;;;;;;;4.95;2.80;;;4.60;99.90;;;;;;5012314;28;20026;-58
2020/12/30 04:45:11;;;;;;;6.57;3.28;;;4.70;99.90;;;;;;5010810;28;20030;-57
2020/12/30 04:47:39;;;;;;;6.93;3.15;;;4.80;99.90;;;;;;5012332;28;20109;-58
2020/12/30 04:50:05;;;;;;;9.93;3.42;;;4.70;99.90;;;;;;5012279;28;20048;-57
2020/12/30 04:52:31;;;;;;;7.95;3.08;;;4.70;99.90;;;;;;5012074;28;20030;-57
2020/12/30 04:54:58;;;;;;;7.63;3.30;;;4.70;99.90;;;;;;5010872;28;20037;-58
2020/12/30 04:58:00;;;;;;;6.80;2.88;;;4.70;99.90;;;;;;5011015;28;20115;-58
2020/12/30 05:00:26;;;;;;;6.32;3.40;;;4.70;99.90;;;;;;5012025;28;20073;-58
2020/12/30 05:02:56;;;;;;;6.07;3.05;;;4.70;99.90;;;;;;5011060;28;20082;-58
2020/12/30 05:05:22;;;;;;;6.60;3.13;;;4.70;99.90;;;;;;5010738;28;20049;-57
2020/12/30 05:07:48;;;;;;;6.03;2.80;;;4.60;99.90;;;;;;5010919;28;20048;-56
2020/12/30 05:10:16;;;;;;;5.13;3.13;;;4.70;99.90;;;;;;5011881;28;20029;-57
2020/12/30 05:12:43;;;;;;;7.57;2.78;;;4.70;99.90;;;;;;5011880;28;20038;-58
2020/12/30 05:15:09;;;;;;;4.78;2.38;;;4.70;99.90;;;;;;5011996;28;20034;-58
2020/12/30 05:17:35;;;;;;;5.15;2.28;;;4.70;99.90;;;;;;5012000;28;20030;-57
2020/12/30 05:20:07;;;;;;;8.18;2.90;;;4.70;99.90;;;;;;5011523;28;20054;-58
2020/12/30 05:22:33;;;;;;;8.18;2.67;;;4.70;99.90;;;;;;5012086;28;20030;-58
2020/12/30 05:25:06;;;;;;;4.82;2.70;;;4.70;99.90;;;;;;5012016;28;20058;-58
2020/12/30 05:27:33;;;;;;;6.95;2.55;;;4.70;99.90;;;;;;5011760;28;20030;-57
2020/12/30 05:29:59;;;;;;;7.20;3.25;;;4.70;99.90;;;;;;5011585;28;20053;-56
2020/12/30 05:32:26;;;;;;;9.07;4.18;;;4.60;99.90;;;;;;5011680;28;20487;-57
2020/12/30 05:34:54;;;;;;;7.10;2.83;;;4.70;99.90;;;;;;5011816;28;20105;-56
2020/12/30 05:37:33;;;;;;;4.97;2.50;;;4.70;99.90;;;;;;5011572;28;20018;-57
2020/12/30 05:39:59;;;;;;;11.23;2.40;;;4.70;99.90;;;;;;5011330;28;20026;-57
2020/12/30 05:42:26;;;;;;;6.97;2.78;;;4.70;99.90;;;;;;5011305;28;20030;-55
2020/12/30 05:44:54;;;;;;;6.47;2.63;;;4.70;99.90;;;;;;5003112;28;20065;-58
2020/12/30 05:47:25;;;;;;;5.18;2.20;;;4.70;99.90;;;;;;5010848;28;20022;-58
2020/12/30 05:49:54;;;;;;;6.30;2.42;;;4.70;99.90;;;;;;5000980;28;20040;-58
2020/12/30 05:52:28;;;;;;;6.22;2.25;;;4.70;99.90;;;;;;4995431;28;20030;-58
2020/12/30 05:55:01;;;;;;;3.65;2.15;;;4.70;99.90;;;;;;4995352;28;20046;-58
2020/12/30 05:57:33;;;;;;;3.88;1.83;;;4.80;99.90;;;;;;4995385;28;20030;-56
2020/12/30 06:00:06;;;;;;;4.50;2.33;;;4.80;99.90;;;;;;4995456;28;20034;-57
2020/12/30 06:02:32;;;;;;;3.75;1.73;;;4.80;99.90;;;;;;4995565;28;20058;-57
2020/12/30 06:05:24;;;;;;;4.57;1.83;;;4.80;99.90;;;;;;5006000;28;20043;-57
2020/12/30 06:07:53;;;;;;;4.97;1.85;;;4.80;99.90;;;;;;4997904;28;20042;-56
2020/12/30 06:10:21;;;;;;;3.17;1.80;;;4.80;99.90;;;;;;5002250;28;20035;-57
2020/12/30 06:12:47;;;;;;;3.63;2.08;;;4.80;99.90;;;;;;4994475;28;20030;-57
2020/12/30 06:15:22;;;;;;;3.63;1.98;;;4.80;99.90;;;;;;5009018;28;20064;-57
2020/12/30 06:18:04;;;;;;;4.95;2.00;;;4.80;99.90;;;;;;5012168;28;20030;-57
2020/12/30 06:20:36;;;;;;;3.55;1.90;;;4.80;99.90;;;;;;5013847;28;20069;-57
2020/12/30 06:23:15;;;;;;;4.82;2.08;;;4.70;99.90;;;;;;5012351;28;20076;-56
2020/12/30 06:25:44;;;;;;;7.40;2.42;;;4.70;99.90;;;;;;5012699;28;20022;-58
2020/12/30 06:28:19;;;;;;;4.95;1.80;;;4.70;99.90;;;;;;5014161;28;20029;-58
2020/12/30 06:30:48;;;;;;;5.40;2.10;;;4.70;99.90;;;;;;5014447;28;20033;-57
2020/12/30 06:33:16;;;;;;;6.13;2.10;;;4.70;99.90;;;;;;5013879;28;20018;-55
2020/12/30 06:35:43;;;;;;;4.43;1.90;;;4.70;99.90;;;;;;5014392;28;20037;-57
2020/12/30 06:38:24;;;;;;;10.20;3.00;;;4.60;99.90;;;;;;5014052;28;20040;-58
2020/12/30 06:41:04;;;;;;;6.15;2.10;;;4.60;99.90;;;;;;5013987;28;20038;-57
2020/12/30 06:43:40;;;;;;;5.10;2.13;;;4.60;99.90;;;;;;5014114;28;20034;-55
2020/12/30 06:46:11;;;;;;;3.60;1.90;;;4.70;99.90;;;;;;5014134;28;20800;-56
2020/12/30 06:49:05;;;;;;;7.10;3.00;;;4.70;99.90;;;;;;5014107;28;20120;-56
2020/12/30 06:51:40;;;;;;;4.80;2.42;;;4.60;99.90;;;;;;5013745;28;20045;-55
2020/12/30 06:54:06;;;;;;;3.85;2.05;;;4.40;99.90;;;;;;5013834;28;20125;-54
2020/12/30 06:56:44;;;;;;;5.63;2.15;;;4.50;99.90;;;;;;5012510;28;20025;-54
2020/12/30 06:59:29;;;;;;;4.20;2.00;;;4.60;99.90;;;;;;5013604;28;20092;-54
2020/12/30 07:02:03;;;;;;;7.90;2.40;;;4.60;99.90;;;;;;5011370;28;20049;-55
2020/12/30 07:04:31;;;;;;;4.53;2.17;;;4.50;99.90;;;;;;5013007;28;20034;-55
2020/12/30 07:06:58;;;;;;;5.70;2.70;;;4.60;99.90;;;;;;5013787;28;20038;-53
2020/12/30 07:09:38;;;;;;;5.63;2.47;;;4.70;99.90;;;;;;5013594;28;20033;-54
2020/12/30 07:12:07;;;;;;;3.20;1.88;;;4.60;99.90;;;;;;5013452;28;20041;-55
2020/12/30 07:14:36;;;;;;;7.60;2.40;;;4.70;99.90;;;;;;5013324;28;20041;-53
2020/12/30 07:17:08;;;;;;;6.18;2.45;;;4.70;99.90;;;;;;5013565;28;20042;-54
2020/12/30 07:19:38;;;;;;;3.88;1.95;;;4.70;99.90;;;;;;5012907;28;20053;-55
2020/12/30 07:22:14;;;;;;;3.50;2.10;;;4.70;99.90;;;;;;5013511;28;20030;-57
2020/12/30 07:24:56;;;;;;;6.07;2.00;;;4.60;99.90;;;;;;5013387;28;20034;-57
2020/12/30 07:27:28;;;;;;;4.15;2.35;;;4.60;99.90;;;;;;5013271;28;20041;-57
2020/12/30 07:29:54;;;;;;;10.75;5.15;;;4.40;99.90;;;;;;5013368;28;20038;-55
2020/12/30 07:32:20;;;;;;;10.73;5.00;;;4.20;99.90;;;;;;5012763;28;20026;-55
2020/12/30 07:34:52;;;;;;;6.50;3.35;;;4.20;99.90;;;;;;5011981;28;20030;-56
2020/12/30 07:37:19;;;;;;;5.45;2.60;;;4.20;99.90;;;;;;5012768;28;20088;-56
2020/12/30 07:39:47;;;;;;;4.53;2.30;;;4.30;99.90;;;;;;5011565;28;20038;-57
2020/12/30 07:42:27;;;;;;;6.68;2.85;;;4.30;99.90;;;;;;5012689;28;20034;-55
2020/12/30 07:44:57;;;;;;;6.35;3.08;;;4.40;99.90;;;;;;5013067;28;20058;-57
2020/12/30 07:47:26;;;;;;;9.07;3.13;;;4.30;99.90;;;;;;5011697;28;20029;-55
2020/12/30 07:50:03;;;;;;;7.05;3.33;;;4.40;99.90;;;;;;5012698;28;20026;-55
2020/12/30 07:52:29;;;;;;;7.05;3.03;;;4.30;99.90;;;;;;5010893;28;20113;-54
2020/12/30 07:54:55;;;;;;;7.05;3.35;;;4.30;99.90;;;;;;5009010;28;20108;-54
2020/12/30 07:57:22;;;;;;;7.38;2.50;;;4.30;99.90;;;;;;5011942;28;20030;-55
2020/12/30 07:59:51;;;;;;;5.47;2.53;;;4.30;99.90;;;;;;5010886;28;20038;-56
2020/12/30 08:02:18;;;;;;;4.70;2.50;;;4.20;99.90;;;;;;5012068;28;20026;-56
2020/12/30 08:04:58;;;;;;;8.27;2.45;;;4.30;99.90;;;;;;5008667;28;20088;-53
2020/12/30 08:07:29;;;;;;;7.88;2.58;;;4.20;99.90;;;;;;4992305;28;20130;-56
2020/12/30 08:09:54;;;;;;;4.07;2.03;;;4.30;99.90;;;;;;4993091;28;20065;-53
2020/12/30 08:12:22;;;;;;;7.22;3.00;;;4.20;99.90;;;;;;4992811;28;20058;-55
2020/12/30 08:14:48;;;;;;;6.18;2.70;;;4.20;99.90;;;;;;4991669;28;20044;-54
2020/12/30 08:17:15;;;;;;;6.10;3.00;;;4.20;99.90;;;;;;4992704;28;20133;-53
2020/12/30 08:19:47;;;;;;;9.63;3.20;;;4.20;99.90;;;;;;4992420;28;20058;-53
2020/12/30 08:22:30;;;;;;;7.15;3.05;;;4.30;99.90;;;;;;4991430;28;20050;-50
2020/12/30 08:24:58;;;;;;;6.80;2.97;;;4.30;99.90;;;;;;5005835;28;20030;-54
2020/12/30 08:27:29;;;;;;;8.52;2.85;;;4.40;99.90;;;;;;5010864;28;20072;-56
2020/12/30 08:29:57;;;;;;;7.05;2.88;;;4.40;99.90;;;;;;5012531;28;20033;-55
2020/12/30 08:32:34;;;;;;;5.47;2.70;;;4.50;99.90;;;;;;5012080;28;20092;-54
2020/12/30 08:35:39;;;;;;;7.30;2.53;;;4.60;99.90;;;;;;5012462;28;20061;-53
2020/12/30 08:38:12;;;;;;;5.65;2.72;;;4.50;99.90;;;;;;5010036;28;20124;-53
2020/12/30 08:40:41;;;;;;;6.55;2.50;;;4.50;99.90;;;;;;5011921;28;20030;-51
2020/12/30 08:43:37;;;;;;;5.20;2.50;;;4.40;99.90;;;;;;5012167;28;20121;-56
2020/12/30 08:46:10;;;;;;;6.53;3.05;;;4.50;99.90;;;;;;5012369;28;20129;-55
2020/12/30 08:48:50;;;;;;;6.35;2.80;;;4.60;99.90;;;;;;5011850;28;20038;-55
2020/12/30 08:51:36;;;;;;;6.70;3.50;;;4.60;99.90;;;;;;5012119;28;20026;-55
2020/12/30 08:54:17;;;;;;;8.05;3.10;;;4.70;99.90;;;;;;5011950;28;20026;-55
2020/12/30 08:56:45;;;;;;;7.70;3.17;;;4.70;99.90;;;;;;5010880;28;20026;-57
2020/12/30 08:59:22;;;;;;;4.97;2.67;;;4.80;99.90;;;;;;5004141;28;20046;-55
2020/12/30 09:01:48;;;;;;;11.35;3.55;;;4.90;99.90;;;;;;5001238;28;20027;-56
2020/12/30 09:04:14;;;;;;;5.97;2.50;;;5.00;99.90;;;;;;5001112;28;20038;-56
2020/12/30 09:06:48;;;;;;;9.85;3.20;;;5.00;99.90;;;;;;5011612;28;20064;-55
2020/12/30 09:09:19;;;;;;;7.22;2.90;;;5.00;99.90;;;;;;5012029;28;20120;-52
2020/12/30 09:11:50;;;;;;;6.28;3.03;;;5.10;99.90;;;;;;5011765;28;20026;-56
2020/12/30 09:14:18;;;;;;;9.13;3.40;;;5.10;99.90;;;;;;5000533;28;20038;-56
2020/12/30 09:17:11;;;;;;;9.05;3.10;;;5.20;99.90;;;;;;4992193;28;20049;-56
2020/12/30 09:19:37;;;;;;;7.80;3.00;;;5.10;99.90;;;;;;4993672;28;20053;-57
2020/12/30 09:22:12;;;;;;;7.30;3.58;;;5.10;99.90;;;;;;4995942;28;20105;-52
2020/12/30 09:24:40;;;;;;;6.95;3.63;;;5.00;99.90;;;;;;5006302;28;20030;-51
2020/12/30 09:27:21;;;;;;;7.15;3.30;;;5.00;99.90;;;;;;5015330;28;20133;-55
2020/12/30 09:30:14;;;;;;;7.03;3.35;;;5.00;99.90;;;;;;5015488;28;20044;-57
2020/12/30 09:32:43;;;;;;;4.93;2.63;;;5.10;99.90;;;;;;5015284;28;20145;-52
2020/12/30 09:35:18;;;;;;;5.60;2.58;;;5.30;99.90;;;;;;5015441;28;20121;-56
2020/12/30 09:37:57;;;;;;;7.45;2.88;;;5.40;99.90;;;;;;5015296;28;20042;-55
2020/12/30 09:40:24;;;;;;;7.50;3.70;;;5.40;99.90;;;;;;5012293;28;20029;-51
2020/12/30 09:42:51;;;;;;;6.40;2.60;;;5.40;99.90;;;;;;5002875;28;20117;-50
2020/12/30 09:45:20;;;;;;;6.80;2.90;;;5.50;99.90;;;;;;4994304;28;20080;-55
2020/12/30 09:47:47;;;;;;;6.65;2.70;;;5.40;99.90;;;;;;4995495;28;20085;-54
2020/12/30 09:50:17;;;;;;;10.85;3.83;;;5.50;99.90;;;;;;4995246;28;20041;-55
2020/12/30 09:52:46;;;;;;;10.30;3.05;;;5.60;99.90;;;;;;4995358;28;20039;-55
2020/12/30 09:55:13;;;;;;;8.02;3.03;;;5.60;99.90;;;;;;5009905;28;20050;-55
2020/12/30 09:57:41;;;;;;;9.20;3.42;;;5.80;99.90;;;;;;5014509;28;20095;-55
2020/12/30 10:00:09;;;;;;;7.47;3.83;;;5.80;99.90;;;;;;5014691;28;20026;-54
2020/12/30 10:02:34;;;;;;;6.20;3.13;;;5.90;99.90;;;;;;5014661;28;20038;-54
2020/12/30 10:05:00;;;;;;;6.10;2.70;;;6.00;99.90;;;;;;5014652;28;20047;-53
2020/12/30 10:07:26;;;;;;;10.75;2.70;;;6.00;99.90;;;;;;5014799;28;20133;-56
2020/12/30 10:09:53;;;;;;;4.22;2.25;;;6.20;99.90;;;;;;5014561;28;20026;-55
2020/12/30 10:12:23;;;;;;;4.50;2.22;;;6.80;99.90;;;;;;5014802;28;20022;-56
2020/12/30 10:14:49;;;;;;;5.45;2.28;;;6.60;99.90;;;;;;5014684;28;20034;-52
2020/12/30 10:17:16;;;;;;;3.88;1.83;;;6.50;99.90;;;;;;5014342;28;20033;-57
2020/12/30 10:19:41;;;;;;;6.47;2.15;;;6.10;99.90;;;;;;5014010;28;20061;-57
2020/12/30 10:22:09;;;;;;;8.02;2.95;;;6.10;99.90;;;;;;5014654;28;20030;-54
2020/12/30 10:24:36;;;;;;;5.13;2.45;;;6.00;99.90;;;;;;5014330;28;20032;-56
2020/12/30 10:27:03;;;;;;;7.30;2.40;;;5.90;99.90;;;;;;5014538;28;20084;-52
2020/12/30 10:29:30;;;;;;;5.32;2.00;;;5.80;99.90;;;;;;5013438;28;20026;-56
2020/12/30 10:31:58;;;;;;;8.45;2.65;;;5.80;99.90;;;;;;5014391;28;20080;-53
2020/12/30 10:34:24;;;;;;;7.18;2.35;;;5.90;99.90;;;;;;5013851;28;20026;-56
2020/12/30 10:36:50;;;;;;;8.20;2.65;;;5.80;99.90;;;;;;5014401;28;20115;-52
2020/12/30 10:39:17;;;;;;;4.22;2.38;;;5.70;99.90;;;;;;5012804;28;20096;-57
2020/12/30 10:41:43;;;;;;;7.72;2.42;;;5.70;99.90;;;;;;5013837;28;20022;-54
2020/12/30 10:44:09;;;;;;;5.63;2.75;;;5.70;99.90;;;;;;5013950;28;20048;-53
2020/12/30 10:46:35;;;;;;;9.85;2.45;;;5.80;99.90;;;;;;5013945;28;20029;-57
2020/12/30 10:49:02;;;;;;;8.15;2.50;;;5.80;99.90;;;;;;5013568;28;20022;-55
2020/12/30 10:51:28;;;;;;;7.72;2.00;;;5.80;99.90;;;;;;5013670;28;20054;-56
2020/12/30 10:53:53;;;;;;;7.55;2.25;;;5.90;99.90;;;;;;5013845;28;20280;-54
2020/12/30 10:56:19;;;;;;;3.70;1.95;;;5.80;99.90;;;;;;5013792;28;20030;-55
2020/12/30 10:58:45;;;;;;;3.03;1.63;;;5.80;99.90;;;;;;5013664;28;20100;-56
2020/12/30 11:01:13;;;;;;;5.30;1.63;;;5.90;99.90;;;;;;5013803;28;20026;-53
2020/12/30 11:03:40;;;;;;;3.92;1.52;;;6.00;99.90;;;;;;5013380;28;20045;-57
2020/12/30 11:06:08;;;;;;;5.05;1.50;;;5.90;99.90;;;;;;5013614;28;20126;-53
2020/12/30 11:08:34;;;;;;;7.65;1.60;;;5.80;99.90;;;;;;5013574;28;20041;-52
2020/12/30 11:11:06;;;;;;;6.70;1.90;;;5.90;99.90;;;;;;5013623;28;20124;-56
2020/12/30 11:13:33;;;;;;;3.70;1.48;;;5.90;99.90;;;;;;5011912;28;20044;-54
2020/12/30 11:15:59;;;;;;;2.33;1.40;;;6.00;99.90;;;;;;5013360;28;20037;-56
2020/12/30 11:18:25;;;;;;;6.18;1.70;;;6.20;99.90;;;;;;5012999;28;20038;-53
2020/12/30 11:20:51;;;;;;;3.45;1.30;;;6.30;99.90;;;;;;5013177;28;20080;-56
2020/12/30 11:23:17;;;;;;;3.47;1.33;;;6.30;99.90;;;;;;5013162;28;20033;-54
2020/12/30 11:25:46;;;;;;;4.78;1.58;;;6.30;99.90;;;;;;5013008;28;20026;-53
2020/12/30 11:28:13;;;;;;;2.70;1.27;;;6.50;99.90;;;;;;5013160;28;20033;-54
2020/12/30 11:30:40;;;;;;;6.05;1.75;;;6.80;99.90;;;;;;5013152;28;20041;-56
2020/12/30 11:33:06;;;;;;;3.47;1.35;;;6.70;99.90;;;;;;5013277;28;20117;-54
2020/12/30 11:35:33;;;;;;;5.15;1.55;;;6.70;99.90;;;;;;5027908;28;20034;-56
2020/12/30 11:37:59;;;;;;;3.55;1.40;;;6.70;99.90;;;;;;5012839;28;20092;-53
2020/12/30 11:40:28;;;;;;;3.70;1.42;;;6.50;99.90;;;;;;5013140;28;20034;-51
2020/12/30 11:42:55;;;;;;;4.47;1.55;;;6.50;99.90;;;;;;5011937;28;20057;-56
2020/12/30 11:45:21;;;;;;;4.00;1.40;;;6.30;99.90;;;;;;5011618;28;20053;-55
2020/12/30 11:47:47;;;;;;;2.40;1.20;;;6.20;99.90;;;;;;5012621;28;20030;-52
2020/12/30 11:50:14;;;;;;;2.13;1.25;;;6.10;99.90;;;;;;5012751;28;20084;-55
2020/12/30 11:52:45;;;;;;;3.70;0.90;;;6.20;99.90;;;;;;5012610;28;20033;-50
2020/12/30 11:55:11;;;;;;;3.03;1.23;;;6.10;99.90;;;;;;5012675;28;20061;-56
2020/12/30 11:57:37;;;;;;;2.85;0.82;;;6.10;99.90;;;;;;5012722;28;20066;-57
2020/12/30 12:00:06;;;;;;;2.38;0.90;;;6.10;99.90;;;;;;5012790;28;20033;-57
2020/12/30 12:02:33;;;;;;;4.22;1.35;;;6.10;99.90;;;;;;5012658;28;20026;-55
2020/12/30 12:05:00;;;;;;;2.40;1.30;;;6.20;99.90;;;;;;5012461;28;20037;-58
2020/12/30 12:07:28;;;;;;;2.72;1.10;;;6.20;99.90;;;;;;5012564;28;20033;-56
2020/12/30 12:09:54;;;;;;;3.72;2.10;;;6.30;99.90;;;;;;5012683;28;20050;-54
2020/12/30 12:12:20;;;;;;;4.07;2.05;;;6.30;99.90;;;;;;5012535;28;20085;-58
2020/12/30 12:14:46;;;;;;;2.47;1.27;;;6.30;99.90;;;;;;5012412;28;20030;-57
2020/12/30 12:17:12;;;;;;;2.97;1.77;;;6.20;99.90;;;;;;5012681;28;20021;-57
2020/12/30 12:19:38;;;;;;;4.32;1.30;;;6.20;99.90;;;;;;5012020;28;20058;-58
2020/12/30 12:22:04;;;;;;;2.92;1.35;;;6.10;99.90;;;;;;5027190;28;20042;-55
2020/12/30 12:24:30;;;;;;;3.80;1.15;;;6.30;99.90;;;;;;5012235;28;20034;-57
2020/12/30 12:26:56;;;;;;;5.68;1.65;;;6.20;99.90;;;;;;5012450;28;20025;-57
2020/12/30 12:29:34;;;;;;;5.53;1.80;;;6.20;99.90;;;;;;5012382;28;20072;-57
2020/12/30 12:32:11;;;;;;;3.60;1.60;;;6.10;99.90;;;;;;5012212;28;20156;-56
2020/12/30 12:34:41;;;;;;;8.80;1.90;;;6.20;99.90;;;;;;5011965;28;20132;-55
2020/12/30 12:37:09;;;;;;;7.05;2.20;;;6.10;99.90;;;;;;5011525;28;20022;-54
2020/12/30 12:39:37;;;;;;;3.90;1.60;;;6.10;99.90;;;;;;5002610;28;20038;-58
2020/12/30 12:42:04;;;;;;;5.57;2.40;;;6.10;99.90;;;;;;5002363;28;20077;-56
2020/12/30 12:44:31;;;;;;;4.00;1.90;;;6.10;99.90;;;;;;4993808;28;20037;-57
2020/12/30 12:46:58;;;;;;;6.60;2.30;;;6.00;99.90;;;;;;4997349;28;20038;-57
2020/12/30 12:49:24;;;;;;;4.72;1.85;;;6.00;99.90;;;;;;5011765;28;20030;-57
2020/12/30 12:51:55;;;;;;;5.72;2.20;;;6.20;99.90;;;;;;5011795;28;20026;-53
2020/12/30 12:54:22;;;;;;;6.80;2.00;;;6.20;99.90;;;;;;5015022;28;20099;-57
2020/12/30 12:56:53;;;;;;;3.88;2.10;;;6.10;99.90;;;;;;5008799;28;20069;-55
2020/12/30 12:59:19;;;;;;;6.40;1.80;;;6.20;99.90;;;;;;5014400;28;20042;-56
2020/12/30 13:01:45;;;;;;;8.27;2.45;;;6.20;99.90;;;;;;5014518;28;20060;-57
2020/12/30 13:04:13;;;;;;;3.95;1.80;;;6.20;99.90;;;;;;5015622;28;20057;-55